createdAt,value
2022-08-17T20:15:01.999Z,23.08
2022-08-17T20:15:53.778Z,23.19
2022-08-17T20:16:53.828Z,23.05
2022-08-17T20:17:53.876Z,23.14
2022-08-17T20:18:53.955Z,23.17
2022-08-17T20:19:53.988Z,23.07
2022-08-17T20:20:54.735Z,23.08
2022-08-17T20:21:54.082Z,23.09
2022-08-17T20:22:54.154Z,23.05
2022-08-17T20:23:54.227Z,23.02
2022-08-17T20:24:54.235Z,22.97
2022-08-17T21:34:47.591Z,20.39
2022-08-17T21:35:47.616Z,20.46
2022-08-17T21:36:47.660Z,20.34
2022-08-17T21:37:47.834Z,20.31
2022-08-17T21:38:47.761Z,20.27
2022-08-17T21:39:47.893Z,20.34
2022-08-17T21:40:48.788Z,20.28
2022-08-17T21:41:47.913Z,20.21
2022-08-17T21:42:47.967Z,20.15
2022-08-17T21:43:48.019Z,20.25
2022-08-17T21:45:01.653Z,20.18
2022-08-17T21:45:56.305Z,20.12
2022-08-17T21:46:48.175Z,20.13
2022-08-17T21:51:24.596Z,19.95
2022-08-17T21:57:20.288Z,19.90
2022-08-17T21:58:20.303Z,19.86
2022-08-17T21:59:20.349Z,19.79
2022-08-17T22:00:20.405Z,19.83
2022-08-17T22:01:20.483Z,19.80
2022-08-17T22:02:20.527Z,19.86
2022-08-17T22:03:20.551Z,19.86
2022-08-17T22:04:20.612Z,19.91
2022-08-17T22:05:20.654Z,19.98
2022-08-17T22:06:20.730Z,19.91
2022-08-17T22:07:20.755Z,20.00
2022-08-17T22:08:20.803Z,19.93
2022-08-17T22:09:20.882Z,20.00
2022-08-17T22:10:20.903Z,19.94
2022-08-17T22:11:20.982Z,20.03
2022-08-17T22:12:21.009Z,20.09
2022-08-17T22:13:21.059Z,20.06
2022-08-17T22:14:21.104Z,20.10
2022-08-17T22:15:21.157Z,20.08
2022-08-17T22:16:28.911Z,20.12
2022-08-17T22:17:21.264Z,20.12
2022-08-17T22:18:21.310Z,20.13
2022-08-17T22:19:21.361Z,20.08
2022-08-17T22:20:21.411Z,20.06
2022-08-17T22:21:22.693Z,20.13
2022-08-17T22:22:21.519Z,20.16
2022-08-17T22:23:21.565Z,20.12
2022-08-17T22:24:21.615Z,20.06
2022-08-17T22:25:21.694Z,20.08
2022-08-17T22:26:21.716Z,20.10
2022-08-17T22:27:21.803Z,20.09
2022-08-17T22:28:21.819Z,20.06
2022-08-17T22:29:21.874Z,20.03
2022-08-17T22:30:21.919Z,20.02
2022-08-17T22:31:21.980Z,19.97
2022-08-17T22:32:22.057Z,19.80
2022-08-17T22:33:22.075Z,19.93
2022-08-17T22:34:22.125Z,19.86
2022-08-17T22:35:22.180Z,19.84
2022-08-17T22:36:22.229Z,19.84
2022-08-17T22:37:27.209Z,19.83
2022-08-17T22:38:22.330Z,19.79
2022-08-17T22:39:22.380Z,19.70
2022-08-17T22:40:22.431Z,19.76
2022-08-17T22:41:22.481Z,19.68
2022-08-17T22:42:22.569Z,19.73
2022-08-17T22:43:24.220Z,19.76
2022-08-17T22:44:22.855Z,19.65
2022-08-17T22:45:22.685Z,19.60
2022-08-17T22:46:22.733Z,19.48
2022-08-17T22:47:22.812Z,19.57
2022-08-17T22:48:22.860Z,19.43
2022-08-17T22:49:22.920Z,19.58
2022-08-17T22:50:22.963Z,19.58
2022-08-17T22:51:23.002Z,19.48
2022-08-17T22:52:23.045Z,19.60
2022-08-17T22:53:23.089Z,19.53
2022-08-17T23:19:56.931Z,19.53
2022-08-17T23:20:49.427Z,19.48
2022-08-17T23:21:49.482Z,19.48
2022-08-17T23:22:52.081Z,19.50
2022-08-17T23:23:49.574Z,19.40
2022-08-17T23:24:49.629Z,19.42
2022-08-17T23:25:49.715Z,19.43
2022-08-17T23:26:49.727Z,19.46
2022-08-17T23:27:49.989Z,19.36
2022-08-17T23:28:49.825Z,19.35
2022-08-17T23:29:49.874Z,19.47
2022-08-17T23:30:49.948Z,19.42
2022-08-17T23:31:49.978Z,19.48
2022-08-17T23:32:53.922Z,19.48
2022-08-17T23:33:50.079Z,19.50
2022-08-17T23:34:50.122Z,19.57
2022-08-17T23:35:50.182Z,19.50
2022-08-17T23:36:50.225Z,19.43
2022-08-17T23:37:50.462Z,19.38
2022-08-17T23:38:50.363Z,19.46
2022-08-17T23:39:50.401Z,19.46
2022-08-17T23:40:50.429Z,19.43
2022-08-17T23:41:50.482Z,19.40
2022-08-17T23:42:50.530Z,19.39
2022-08-17T23:43:50.632Z,19.32
2022-08-17T23:47:48.609Z,19.53
